KSEM/SEM METAR and TAF weather

Enter ICAO airport designator
Station Type Date Time Source
KSEM METAR 2024/07/24 11:20 UTC NOAA

KSEM 241120Z AUTO 00000KT 9SM FEW003 BKN120 23/23 A3015 RMK AO2


Station Type Date Time Source
KSEM Decoded METAR 2024/07/24 11:20 UTC NOAA

Craig Field / Selma, AL, United States (KSEM) 32-21N 086-59W
Jul 24, 2024 - 07:20 AM EDT / 2024.07.24 1120 UTC
Wind: Calm:0
Visibility: 9 mile(s):0
Sky conditions: mostly cloudy
Temperature: 73 F (23 C)
Dew Point: 73 F (23 C)
Relative Humidity: 100%
Pressure (altimeter): 30.15 in. Hg (1020 hPa)
ob: KSEM 241120Z AUTO 00000KT 9SM FEW003 BKN120 23/23 A3015 RMK AO2
cycle: 11

Station Type Date Time Source
KSEM TAF UTC NOAA

Error!

Example: see airport list